NWA1276 KCHA-KBHM
Flight info
| Callsign | NWA1276 |
|---|---|
| Flight time | 0h 35m |
| Altitude | 12000 |
| Route | DIODE |
| Aircraft | SF34/M-SDFGR/S |
Departure
| Time | 2026-04-24 21:11 |
|---|---|
| Airport | Chattanooga Metropolitan Airport (Lovell Field) (KCHA) |
Arrival
| Time | 2026-04-24 21:46 |
|---|---|
| Airport | Birmingham-Shuttlesworth International Airport (KBHM) |
| Time | Latitude | Longitude | Altitude | Speed | Heading |
|---|---|---|---|---|---|
| 2026-04-24 20:51 | 35.03735 | -85.19830 | 674 ft | 0 kts | 69° |
| 2026-04-24 21:02 | 35.03732 | -85.19838 | 677 ft | 2 kts | 69° |
| 2026-04-24 21:03 | 35.03725 | -85.19860 | 677 ft | 2 kts | 69° |
| 2026-04-24 21:03 | 35.03717 | -85.19882 | 672 ft | 3 kts | 55° |
| 2026-04-24 21:03 | 35.03704 | -85.19900 | 677 ft | 3 kts | 31° |
| 2026-04-24 21:03 | 35.03686 | -85.19909 | 677 ft | 3 kts | 8° |
| 2026-04-24 21:04 | 35.03676 | -85.19911 | 677 ft | 1 kts | 4° |
| 2026-04-24 21:04 | 35.03674 | -85.19911 | 677 ft | 0 kts | 4° |
| 2026-04-24 21:09 | 35.03728 | -85.19947 | 674 ft | 14 kts | 5° |
| 2026-04-24 21:09 | 35.03866 | -85.19890 | 677 ft | 27 kts | 14° |
| 2026-04-24 21:09 | 35.03957 | -85.19869 | 677 ft | 5 kts | 17° |
| 2026-04-24 21:09 | 35.04043 | -85.19869 | 675 ft | 21 kts | 328° |
| 2026-04-24 21:10 | 35.04138 | -85.19937 | 677 ft | 1 kts | 332° |
| 2026-04-24 21:10 | 35.04188 | -85.19992 | 677 ft | 20 kts | 290° |
| 2026-04-24 21:10 | 35.04106 | -85.20082 | 680 ft | 31 kts | 198° |
| 2026-04-24 21:10 | 35.03614 | -85.20264 | 678 ft | 112 kts | 194° |
| 2026-04-24 21:11 | 35.02747 | -85.20592 | 1072 ft | 145 kts | 195° |
| 2026-04-24 21:11 | 35.01750 | -85.21140 | 1605 ft | 160 kts | 207° |
| 2026-04-24 21:11 | 35.00737 | -85.21729 | 2251 ft | 167 kts | 205° |
| 2026-04-24 21:11 | 34.99641 | -85.22349 | 2934 ft | 178 kts | 210° |
| 2026-04-24 21:12 | 34.98569 | -85.23127 | 3815 ft | 182 kts | 221° |
| 2026-04-24 21:12 | 34.97707 | -85.24480 | 3797 ft | 226 kts | 253° |
| 2026-04-24 21:12 | 34.97584 | -85.26365 | 4349 ft | 229 kts | 270° |
| 2026-04-24 21:12 | 34.97966 | -85.28349 | 4354 ft | 244 kts | 289° |
| 2026-04-24 21:13 | 34.98460 | -85.30255 | 5192 ft | 233 kts | 281° |
| 2026-04-24 21:13 | 34.98712 | -85.32224 | 5806 ft | 233 kts | 272° |
| 2026-04-24 21:13 | 34.98848 | -85.34214 | 6362 ft | 241 kts | 275° |
| 2026-04-24 21:13 | 34.99219 | -85.36255 | 6574 ft | 248 kts | 278° |
| 2026-04-24 21:14 | 34.99365 | -85.38268 | 7449 ft | 234 kts | 268° |
| 2026-04-24 21:14 | 34.99231 | -85.40250 | 8097 ft | 229 kts | 259° |
| 2026-04-24 21:14 | 34.98841 | -85.42145 | 8782 ft | 231 kts | 251° |
| 2026-04-24 21:14 | 34.97989 | -85.43717 | 9779 ft | 228 kts | 222° |
| 2026-04-24 21:15 | 34.96480 | -85.44575 | 10004 ft | 258 kts | 194° |
| 2026-04-24 21:15 | 34.94621 | -85.44792 | 10012 ft | 277 kts | 185° |
| 2026-04-24 21:15 | 34.92663 | -85.44867 | 10049 ft | 285 kts | 185° |
| 2026-04-24 21:15 | 34.90665 | -85.44920 | 10075 ft | 289 kts | 184° |
| 2026-04-24 21:16 | 34.88690 | -85.44963 | 10593 ft | 273 kts | 183° |
| 2026-04-24 21:16 | 34.86868 | -85.44993 | 11597 ft | 257 kts | 184° |
| 2026-04-24 21:16 | 34.85059 | -85.45028 | 12013 ft | 270 kts | 184° |
| 2026-04-24 21:16 | 34.83161 | -85.45361 | 12009 ft | 282 kts | 204° |
| 2026-04-24 21:17 | 34.81532 | -85.46706 | 12008 ft | 288 kts | 230° |
| 2026-04-24 21:17 | 34.80547 | -85.48820 | 12010 ft | 288 kts | 251° |
| 2026-04-24 21:17 | 34.79617 | -85.50968 | 12004 ft | 292 kts | 232° |
| 2026-04-24 21:17 | 34.78096 | -85.52615 | 12008 ft | 294 kts | 219° |
| 2026-04-24 21:18 | 34.76541 | -85.54230 | 12015 ft | 294 kts | 226° |
| 2026-04-24 21:18 | 34.75190 | -85.55992 | 12588 ft | 250 kts | 231° |
| 2026-04-24 21:18 | 34.74127 | -85.57842 | 12278 ft | 279 kts | 238° |
| 2026-04-24 21:18 | 34.72796 | -85.59578 | 12791 ft | 285 kts | 218° |
| 2026-04-24 21:19 | 34.71134 | -85.60985 | 12613 ft | 306 kts | 219° |
| 2026-04-24 21:19 | 34.69941 | -85.62066 | 12626 ft | 237 kts | 221° |
| 2026-04-24 21:19 | 34.68744 | -85.63392 | 11301 ft | 228 kts | 230° |
| 2026-04-24 21:19 | 34.67960 | -85.64973 | 10894 ft | 223 kts | 242° |
| 2026-04-24 21:20 | 34.67673 | -85.65527 | 10943 ft | 230 kts | 236° |
| 2026-04-24 21:20 | 34.67095 | -85.66354 | 11273 ft | 229 kts | 229° |
| 2026-04-24 21:20 | 34.65943 | -85.67707 | 11832 ft | 234 kts | 225° |
| 2026-04-24 21:21 | 34.64751 | -85.69119 | 11964 ft | 252 kts | 228° |
| 2026-04-24 21:21 | 34.63525 | -85.70704 | 11981 ft | 262 kts | 229° |
| 2026-04-24 21:21 | 34.62238 | -85.72306 | 11983 ft | 267 kts | 227° |
| 2026-04-24 21:21 | 34.60927 | -85.73914 | 11982 ft | 269 kts | 228° |
| 2026-04-24 21:22 | 34.59632 | -85.75559 | 11980 ft | 270 kts | 228° |
| 2026-04-24 21:22 | 34.58317 | -85.77191 | 11976 ft | 270 kts | 228° |
| 2026-04-24 21:22 | 34.57005 | -85.78816 | 11990 ft | 270 kts | 228° |
| 2026-04-24 21:22 | 34.55698 | -85.80455 | 11985 ft | 271 kts | 228° |
| 2026-04-24 21:23 | 34.54383 | -85.82090 | 11981 ft | 270 kts | 228° |
| 2026-04-24 21:23 | 34.53054 | -85.83742 | 11982 ft | 270 kts | 228° |
| 2026-04-24 21:23 | 34.51747 | -85.85371 | 11985 ft | 270 kts | 227° |
| 2026-04-24 21:23 | 34.50433 | -85.87003 | 11986 ft | 270 kts | 227° |
| 2026-04-24 21:24 | 34.49119 | -85.88637 | 11979 ft | 270 kts | 228° |
| 2026-04-24 21:24 | 34.47823 | -85.90247 | 11986 ft | 270 kts | 227° |
| 2026-04-24 21:24 | 34.46490 | -85.91901 | 11980 ft | 270 kts | 227° |
| 2026-04-24 21:24 | 34.45181 | -85.93527 | 11981 ft | 270 kts | 228° |
| 2026-04-24 21:25 | 34.43870 | -85.95156 | 11972 ft | 270 kts | 228° |
| 2026-04-24 21:25 | 34.42575 | -85.96761 | 11975 ft | 270 kts | 227° |
| 2026-04-24 21:25 | 34.41260 | -85.98387 | 11982 ft | 270 kts | 228° |
| 2026-04-24 21:25 | 34.39948 | -86.00014 | 11990 ft | 271 kts | 228° |
| 2026-04-24 21:26 | 34.38612 | -86.01665 | 11999 ft | 271 kts | 227° |
| 2026-04-24 21:26 | 34.37298 | -86.03266 | 11999 ft | 272 kts | 227° |
| 2026-04-24 21:26 | 34.35937 | -86.04900 | 12004 ft | 272 kts | 227° |
| 2026-04-24 21:26 | 34.34603 | -86.06477 | 12011 ft | 272 kts | 226° |
| 2026-04-24 21:27 | 34.33240 | -86.08065 | 12023 ft | 272 kts | 226° |
| 2026-04-24 21:27 | 34.31866 | -86.09643 | 12023 ft | 272 kts | 225° |
| 2026-04-24 21:27 | 34.30486 | -86.11202 | 12025 ft | 272 kts | 225° |
| 2026-04-24 21:27 | 34.29092 | -86.12755 | 12019 ft | 273 kts | 224° |
| 2026-04-24 21:28 | 34.27672 | -86.14318 | 11720 ft | 280 kts | 224° |
| 2026-04-24 21:28 | 34.26216 | -86.15901 | 11259 ft | 283 kts | 224° |
| 2026-04-24 21:28 | 34.24743 | -86.17480 | 10804 ft | 283 kts | 223° |
| 2026-04-24 21:28 | 34.23266 | -86.19043 | 10352 ft | 281 kts | 223° |
| 2026-04-24 21:29 | 34.21794 | -86.20579 | 9909 ft | 278 kts | 222° |
| 2026-04-24 21:29 | 34.20409 | -86.21999 | 9420 ft | 238 kts | 221° |
| 2026-04-24 21:29 | 34.19175 | -86.23234 | 8856 ft | 215 kts | 221° |
| 2026-04-24 21:29 | 34.18062 | -86.24322 | 8292 ft | 191 kts | 220° |
| 2026-04-24 21:30 | 34.17038 | -86.25307 | 7737 ft | 186 kts | 220° |
| 2026-04-24 21:30 | 34.16017 | -86.26263 | 7195 ft | 184 kts | 219° |
| 2026-04-24 21:30 | 34.14995 | -86.27199 | 6651 ft | 184 kts | 218° |
| 2026-04-24 21:30 | 34.13974 | -86.28109 | 6137 ft | 180 kts | 217° |
| 2026-04-24 21:31 | 34.12985 | -86.28971 | 5993 ft | 170 kts | 216° |
| 2026-04-24 21:31 | 34.12041 | -86.29777 | 5970 ft | 164 kts | 217° |
| 2026-04-24 21:31 | 34.11104 | -86.30544 | 5968 ft | 162 kts | 215° |
| 2026-04-24 21:31 | 34.10158 | -86.31283 | 5978 ft | 161 kts | 214° |
| 2026-04-24 21:32 | 34.09201 | -86.32001 | 5973 ft | 162 kts | 213° |
| 2026-04-24 21:32 | 34.08229 | -86.32712 | 5972 ft | 164 kts | 213° |
| 2026-04-24 21:32 | 34.07247 | -86.33406 | 5969 ft | 164 kts | 211° |
| 2026-04-24 21:32 | 34.06253 | -86.34086 | 5969 ft | 163 kts | 211° |
| 2026-04-24 21:33 | 34.05255 | -86.34749 | 5970 ft | 164 kts | 210° |
| 2026-04-24 21:33 | 34.04587 | -86.35181 | 5972 ft | 165 kts | 210° |
| 2026-04-24 21:33 | 34.03227 | -86.36032 | 5970 ft | 166 kts | 208° |
| 2026-04-24 21:33 | 34.02188 | -86.36652 | 5975 ft | 166 kts | 208° |
| 2026-04-24 21:34 | 34.01153 | -86.37247 | 5970 ft | 164 kts | 207° |
| 2026-04-24 21:34 | 34.00116 | -86.37821 | 5971 ft | 162 kts | 207° |
| 2026-04-24 21:34 | 33.99083 | -86.38366 | 5974 ft | 162 kts | 205° |
| 2026-04-24 21:34 | 33.98041 | -86.38889 | 5973 ft | 163 kts | 205° |
| 2026-04-24 21:35 | 33.96990 | -86.39398 | 5973 ft | 163 kts | 204° |
| 2026-04-24 21:35 | 33.95926 | -86.39891 | 5974 ft | 165 kts | 202° |
| 2026-04-24 21:35 | 33.94645 | -86.40468 | 5993 ft | 225 kts | 202° |
| 2026-04-24 21:35 | 33.93051 | -86.41178 | 5994 ft | 259 kts | 202° |
| 2026-04-24 21:36 | 33.91250 | -86.41970 | 6633 ft | 234 kts | 201° |
| 2026-04-24 21:36 | 33.89670 | -86.42778 | 6482 ft | 259 kts | 212° |
| 2026-04-24 21:36 | 33.88455 | -86.44304 | 6279 ft | 254 kts | 241° |
| 2026-04-24 21:36 | 33.88019 | -86.46345 | 6083 ft | 254 kts | 265° |
| 2026-04-24 21:37 | 33.88033 | -86.48474 | 5891 ft | 255 kts | 270° |
| 2026-04-24 21:37 | 33.88113 | -86.50610 | 5700 ft | 254 kts | 271° |
| 2026-04-24 21:37 | 33.88203 | -86.52693 | 5799 ft | 246 kts | 272° |
| 2026-04-24 21:37 | 33.88292 | -86.54742 | 5932 ft | 244 kts | 271° |
| 2026-04-24 21:38 | 33.88379 | -86.56752 | 6059 ft | 239 kts | 271° |
| 2026-04-24 21:38 | 33.88466 | -86.58748 | 6183 ft | 239 kts | 271° |
| 2026-04-24 21:38 | 33.88527 | -86.60720 | 6252 ft | 232 kts | 262° |
| 2026-04-24 21:38 | 33.87793 | -86.62465 | 5738 ft | 244 kts | 224° |
| 2026-04-24 21:39 | 33.86772 | -86.64039 | 5784 ft | 233 kts | 244° |
| 2026-04-24 21:39 | 33.86581 | -86.65950 | 5900 ft | 237 kts | 279° |
| 2026-04-24 21:39 | 33.87326 | -86.67720 | 6024 ft | 240 kts | 306° |
| 2026-04-24 21:39 | 33.88137 | -86.69440 | 6026 ft | 240 kts | 282° |
| 2026-04-24 21:40 | 33.88228 | -86.71438 | 5772 ft | 235 kts | 284° |
| 2026-04-24 21:40 | 33.88957 | -86.73057 | 5506 ft | 228 kts | 243° |
| 2026-04-24 21:40 | 33.87624 | -86.73795 | 5630 ft | 230 kts | 185° |
| 2026-04-24 21:40 | 33.85978 | -86.73759 | 5281 ft | 241 kts | 180° |
| 2026-04-24 21:41 | 33.84305 | -86.73800 | 5202 ft | 238 kts | 187° |
| 2026-04-24 21:41 | 33.83202 | -86.73926 | 5056 ft | 242 kts | 189° |
| 2026-04-24 21:41 | 33.80949 | -86.74233 | 4601 ft | 243 kts | 188° |
| 2026-04-24 21:41 | 33.79312 | -86.74418 | 4265 ft | 223 kts | 185° |
| 2026-04-24 21:42 | 33.78302 | -86.74505 | 4010 ft | 219 kts | 188° |
| 2026-04-24 21:42 | 33.76801 | -86.74673 | 3806 ft | 203 kts | 185° |
| 2026-04-24 21:42 | 33.75433 | -86.74825 | 3881 ft | 203 kts | 187° |
| 2026-04-24 21:42 | 33.73987 | -86.74979 | 3373 ft | 212 kts | 186° |
| 2026-04-24 21:43 | 33.72509 | -86.74990 | 2834 ft | 216 kts | 180° |
| 2026-04-24 21:43 | 33.71005 | -86.74877 | 2455 ft | 211 kts | 179° |
| 2026-04-24 21:43 | 33.69572 | -86.74793 | 2546 ft | 201 kts | 181° |
| 2026-04-24 21:43 | 33.68170 | -86.74697 | 2562 ft | 203 kts | 177° |
| 2026-04-24 21:44 | 33.66718 | -86.74604 | 2263 ft | 206 kts | 182° |
| 2026-04-24 21:44 | 33.65308 | -86.74632 | 2067 ft | 200 kts | 187° |
| 2026-04-24 21:44 | 33.63916 | -86.74757 | 2022 ft | 215 kts | 185° |
| 2026-04-24 21:44 | 33.62351 | -86.74685 | 1883 ft | 227 kts | 179° |
| 2026-04-24 21:45 | 33.60972 | -86.74674 | 1783 ft | 175 kts | 180° |
| 2026-04-24 21:45 | 33.59856 | -86.74697 | 1357 ft | 149 kts | 186° |
| 2026-04-24 21:45 | 33.58934 | -86.74711 | 1243 ft | 112 kts | 181° |
| 2026-04-24 21:45 | 33.58176 | -86.74709 | 1023 ft | 117 kts | 188° |
| 2026-04-24 21:46 | 33.57339 | -86.74711 | 714 ft | 128 kts | 185° |
| 2026-04-24 21:46 | 33.56549 | -86.74722 | 623 ft | 89 kts | 183° |
| 2026-04-24 21:46 | 33.56236 | -86.74711 | 620 ft | 36 kts | 180° |
| 2026-04-24 21:46 | 33.55947 | -86.74718 | 605 ft | 44 kts | 185° |
| 2026-04-24 21:47 | 33.55763 | -86.74825 | 612 ft | 19 kts | 322° |
| 2026-04-24 21:47 | 33.55880 | -86.74854 | 607 ft | 22 kts | 0° |
| 2026-04-24 21:47 | 33.56087 | -86.74855 | 609 ft | 36 kts | 357° |
| 2026-04-24 21:47 | 33.56363 | -86.74845 | 621 ft | 30 kts | 359° |
| 2026-04-24 21:48 | 33.56462 | -86.74959 | 621 ft | 14 kts | 328° |
| 2026-04-24 21:48 | 33.56438 | -86.75029 | 622 ft | 15 kts | 195° |
| 2026-04-24 21:48 | 33.56395 | -86.75046 | 626 ft | 0 kts | 202° |